Citadel — PBOK — position and weather

sailwx.info

Track history (hours):
 
Tides and Currents Weather Stations Pressure Air Temp Water Temp Dewpoint Dewpoint Depression Visibility Wind Speed Wind Dir Waves Ship Positions

Citadel

Last reported at 2016-Aug-25 00:33 UTC. Time now 2016-Aug-25 00:58 UTC.
Position N 29°40' W 014°34'.

Length 111 m; draft 5.9 m.

Type: Cargo ship. MMSI: 245977000.

Date/timePositionNaut miles runAvg speedWind from/ knotsBaromVisibWave heightAir tempDewpointWater temp
2016-Aug-25 00:33N 29°40' W 014°34'1211.7
2016-Aug-24 23:33N 29°52' W 014°31'1111.5
2016-Aug-24 22:33N 30°03' W 014°28'1211.4
2016-Aug-24 21:31N 30°14' W 014°24'3511.6
2016-Aug-24 18:32N 30°48' W 014°15'2211.0
2016-Aug-24 16:32N 31°09' W 014°08'5811.6
2016-Aug-24 11:32N 32°06' W 013°51'1611.5
2016-Aug-24 10:11N 32°21' W 013°47'911.5
2016-Aug-24 09:24N 32°29' W 013°44'1111.6
2016-Aug-24 08:27N 32°40' W 013°41'1210.8
2016-Aug-24 07:18N 32°52' W 013°38'6010.2
2016-Aug-24 01:26N 33°50' W 013°19'2010.4
2016-Aug-23 23:33N 34°09' W 013°13'1110.4
2016-Aug-23 22:32N 34°20' W 013°10'1110.7
2016-Aug-23 21:32N 34°30' W 013°07'1310.6
2016-Aug-23 20:20N 34°42' W 013°03'2110.9
2016-Aug-23 18:27N 35°02' W 012°57'4411.1
2016-Aug-23 14:26N 35°45' W 012°43'1011.2
2016-Aug-23 13:33N 35°55' W 012°39'3311.0
2016-Aug-23 10:31N 36°27' W 012°28'2110.6
2016-Aug-23 08:32N 36°47' W 012°22'1010.5
2016-Aug-23 07:33N 36°57' W 012°19'1110.7
2016-Aug-23 06:33N 37°07' W 012°15'1211.1
2016-Aug-23 05:30N 37°19' W 012°11'1111.1
2016-Aug-23 04:33N 37°29' W 012°08'1110.6
2016-Aug-23 03:33N 37°39' W 012°04'1010.5
2016-Aug-23 02:33N 37°49' W 012°01'1010.3
2016-Aug-23 01:33N 37°59' W 011°57'1010.1
2016-Aug-23 00:33N 38°09' W 011°54'1010.4
2016-Aug-22 23:33N 38°19' W 011°50'1110.4
2016-Aug-22 22:32N 38°29' W 011°47'1010.3
2016-Aug-22 21:33N 38°39' W 011°43'1010.2
2016-Aug-22 20:33N 38°49' W 011°40'1010.5
2016-Aug-22 19:33N 38°59' W 011°36'1210.9
2016-Aug-22 18:25N 39°11' W 011°32'1110.8
2016-Aug-22 17:26N 39°21' W 011°29'1110.9
2016-Aug-22 16:27N 39°31' W 011°24'2111.1
2016-Aug-22 14:31N 39°52' W 011°17'7410.7
2016-Aug-22 07:33N 41°03' W 010°50'4710.9
2016-Aug-22 03:15N 41°48' W 010°32'1911.0
2016-Aug-22 01:30N 42°07' W 010°25'1010.6
2016-Aug-22 00:33N 42°16' W 010°21'2411.2
2016-Aug-21 22:25N 42°39' W 010°12'179 9.5
2016-Aug-21 03:29N 43°44' W 006°23'1010.3
2016-Aug-21 02:30N 43°43' W 006°09'1210.5
2016-Aug-21 01:21N 43°42' W 005°53'810.0
2016-Aug-21 00:33N 43°38' W 005°43'4 2.0
2016-Aug-20 22:21N 43°34' W 005°42'0 0.0
2016-Aug-20 21:33N 43°34' W 005°42'0 0.0
2016-Aug-20 19:30N 43°34' W 005°42'0 0.0
2016-Aug-20 18:28N 43°34' W 005°42'0 0.0
2016-Aug-20 17:32N 43°34' W 005°42'0 0.0
2016-Aug-20 16:28N 43°34' W 005°42'0 0.0
2016-Aug-20 15:26N 43°34' W 005°42'0 0.0
2016-Aug-20 14:31N 43°34' W 005°42'0 0.0
2016-Aug-20 13:32N 43°34' W 005°42'0 0.0
2016-Aug-20 12:33N 43°34' W 005°42'0 0.0
2016-Aug-20 11:23N 43°34' W 005°42'0 0.0
2016-Aug-20 10:19N 43°34' W 005°42'0 0.0
2016-Aug-20 09:31N 43°34' W 005°42'0 0.0
2016-Aug-20 08:28N 43°34' W 005°42'0 0.0
2016-Aug-20 07:30N 43°34' W 005°42'0 0.0
2016-Aug-20 06:30N 43°34' W 005°42'0 0.0
2016-Aug-20 05:32N 43°34' W 005°42'0 0.0
2016-Aug-20 04:24N 43°34' W 005°42'0 0.0
2016-Aug-20 03:27N 43°34' W 005°42'0 0.0
2016-Aug-20 01:23N 43°34' W 005°42'0 0.0
2016-Aug-19 18:33N 43°34' W 005°42'0 0.0
2016-Aug-19 08:30N 43°34' W 005°42'0 0.0
2016-Aug-19 07:32N 43°34' W 005°42'0 0.0
2016-Aug-19 06:33N 43°34' W 005°42'0 0.0
2016-Aug-19 05:33N 43°34' W 005°42'0 0.0
2016-Aug-19 04:32N 43°34' W 005°42'0 0.0
2016-Aug-19 03:33N 43°34' W 005°42'0 0.0
2016-Aug-19 02:25N 43°34' W 005°42'0 0.0
2016-Aug-19 01:33N 43°34' W 005°42'0 0.0
2016-Aug-19 00:32N 43°34' W 005°42'0 0.0
2016-Aug-18 20:13N 43°34' W 005°42'0 0.0
2016-Aug-18 19:21N 43°34' W 005°42'0 0.0
2016-Aug-18 18:33N 43°34' W 005°42'1 0.8
2016-Aug-18 17:31N 43°34' W 005°41'1 1.0
2016-Aug-18 16:30N 43°35' W 005°41'0 0.0
2016-Aug-18 15:32N 43°35' W 005°41'0 0.0
2016-Aug-18 14:31N 43°35' W 005°41'0 0.0
2016-Aug-18 13:33N 43°35' W 005°41'0 0.0
2016-Aug-18 12:33N 43°35' W 005°41'0 0.0
2016-Aug-18 11:33N 43°35' W 005°41'0 0.0
2016-Aug-18 10:33N 43°35' W 005°41'0 0.0
2016-Aug-18 09:33N 43°35' W 005°41'0 0.0
2016-Aug-18 08:33N 43°35' W 005°41'0 0.0
2016-Aug-18 07:33N 43°35' W 005°41'0 0.0
2016-Aug-18 06:33N 43°35' W 005°41'0 0.0
2016-Aug-18 05:34N 43°35' W 005°41'3 2.5
2016-Aug-18 04:33N 43°35' W 005°38'1110.6
2016-Aug-18 03:33N 43°35' W 005°23'1211.4
2016-Aug-18 02:29N 43°34' W 005°06'  
2016-Aug-15 04:34N 43°28' W 002°01'1 1.0
2016-Aug-15 03:27N 43°29' W 002°02'  
Track history (hours):
 
Tides and Currents Weather Stations Pressure Air Temp Water Temp Dewpoint Dewpoint Depression Visibility Wind Speed Wind Dir Waves Ship Positions

Citadel

Last reported at 2016-Aug-25 00:33 UTC. Time now 2016-Aug-25 00:58 UTC.
Position N 29°40' W 014°34'.

Length 111 m; draft 5.9 m.

Type: Cargo ship. MMSI: 245977000.

Date/timePositionNaut miles runAvg speedWind from/ knotsBaromVisibWave heightAir tempDewpointWater temp
2016-Aug-25 00:33N 29°40' W 014°34'1211.7
2016-Aug-24 23:33N 29°52' W 014°31'1111.5
2016-Aug-24 22:33N 30°03' W 014°28'1211.4
2016-Aug-24 21:31N 30°14' W 014°24'3511.6
2016-Aug-24 18:32N 30°48' W 014°15'2211.0
2016-Aug-24 16:32N 31°09' W 014°08'5811.6
2016-Aug-24 11:32N 32°06' W 013°51'1611.5
2016-Aug-24 10:11N 32°21' W 013°47'911.5
2016-Aug-24 09:24N 32°29' W 013°44'1111.6
2016-Aug-24 08:27N 32°40' W 013°41'1210.8
2016-Aug-24 07:18N 32°52' W 013°38'6010.2
2016-Aug-24 01:26N 33°50' W 013°19'2010.4
2016-Aug-23 23:33N 34°09' W 013°13'1110.4
2016-Aug-23 22:32N 34°20' W 013°10'1110.7
2016-Aug-23 21:32N 34°30' W 013°07'1310.6
2016-Aug-23 20:20N 34°42' W 013°03'2110.9
2016-Aug-23 18:27N 35°02' W 012°57'4411.1
2016-Aug-23 14:26N 35°45' W 012°43'1011.2
2016-Aug-23 13:33N 35°55' W 012°39'3311.0
2016-Aug-23 10:31N 36°27' W 012°28'2110.6
2016-Aug-23 08:32N 36°47' W 012°22'1010.5
2016-Aug-23 07:33N 36°57' W 012°19'1110.7
2016-Aug-23 06:33N 37°07' W 012°15'1211.1
2016-Aug-23 05:30N 37°19' W 012°11'1111.1
2016-Aug-23 04:33N 37°29' W 012°08'1110.6
2016-Aug-23 03:33N 37°39' W 012°04'1010.5
2016-Aug-23 02:33N 37°49' W 012°01'1010.3
2016-Aug-23 01:33N 37°59' W 011°57'1010.1
2016-Aug-23 00:33N 38°09' W 011°54'1010.4
2016-Aug-22 23:33N 38°19' W 011°50'1110.4
2016-Aug-22 22:32N 38°29' W 011°47'1010.3
2016-Aug-22 21:33N 38°39' W 011°43'1010.2
2016-Aug-22 20:33N 38°49' W 011°40'1010.5
2016-Aug-22 19:33N 38°59' W 011°36'1210.9
2016-Aug-22 18:25N 39°11' W 011°32'1110.8
2016-Aug-22 17:26N 39°21' W 011°29'1110.9
2016-Aug-22 16:27N 39°31' W 011°24'2111.1
2016-Aug-22 14:31N 39°52' W 011°17'7410.7
2016-Aug-22 07:33N 41°03' W 010°50'4710.9
2016-Aug-22 03:15N 41°48' W 010°32'1911.0
2016-Aug-22 01:30N 42°07' W 010°25'1010.6
2016-Aug-22 00:33N 42°16' W 010°21'2411.2
2016-Aug-21 22:25N 42°39' W 010°12'179 9.5
2016-Aug-21 03:29N 43°44' W 006°23'1010.3
2016-Aug-21 02:30N 43°43' W 006°09'1210.5
2016-Aug-21 01:21N 43°42' W 005°53'810.0
2016-Aug-21 00:33N 43°38' W 005°43'4 2.0
2016-Aug-20 22:21N 43°34' W 005°42'0 0.0
2016-Aug-20 21:33N 43°34' W 005°42'0 0.0
2016-Aug-20 19:30N 43°34' W 005°42'0 0.0
2016-Aug-20 18:28N 43°34' W 005°42'0 0.0
2016-Aug-20 17:32N 43°34' W 005°42'0 0.0
2016-Aug-20 16:28N 43°34' W 005°42'0 0.0
2016-Aug-20 15:26N 43°34' W 005°42'0 0.0
2016-Aug-20 14:31N 43°34' W 005°42'0 0.0
2016-Aug-20 13:32N 43°34' W 005°42'0 0.0
2016-Aug-20 12:33N 43°34' W 005°42'0 0.0
2016-Aug-20 11:23N 43°34' W 005°42'0 0.0
2016-Aug-20 10:19N 43°34' W 005°42'0 0.0
2016-Aug-20 09:31N 43°34' W 005°42'0 0.0
2016-Aug-20 08:28N 43°34' W 005°42'0 0.0
2016-Aug-20 07:30N 43°34' W 005°42'0 0.0
2016-Aug-20 06:30N 43°34' W 005°42'0 0.0
2016-Aug-20 05:32N 43°34' W 005°42'0 0.0
2016-Aug-20 04:24N 43°34' W 005°42'0 0.0
2016-Aug-20 03:27N 43°34' W 005°42'0 0.0
2016-Aug-20 01:23N 43°34' W 005°42'0 0.0
2016-Aug-19 18:33N 43°34' W 005°42'0 0.0
2016-Aug-19 08:30N 43°34' W 005°42'0 0.0
2016-Aug-19 07:32N 43°34' W 005°42'0 0.0
2016-Aug-19 06:33N 43°34' W 005°42'0 0.0
2016-Aug-19 05:33N 43°34' W 005°42'0 0.0
2016-Aug-19 04:32N 43°34' W 005°42'0 0.0
2016-Aug-19 03:33N 43°34' W 005°42'0 0.0
2016-Aug-19 02:25N 43°34' W 005°42'0 0.0
2016-Aug-19 01:33N 43°34' W 005°42'0 0.0
2016-Aug-19 00:32N 43°34' W 005°42'0 0.0
2016-Aug-18 20:13N 43°34' W 005°42'0 0.0
2016-Aug-18 19:21N 43°34' W 005°42'0 0.0
2016-Aug-18 18:33N 43°34' W 005°42'1 0.8
2016-Aug-18 17:31N 43°34' W 005°41'1 1.0
2016-Aug-18 16:30N 43°35' W 005°41'0 0.0
2016-Aug-18 15:32N 43°35' W 005°41'0 0.0
2016-Aug-18 14:31N 43°35' W 005°41'0 0.0
2016-Aug-18 13:33N 43°35' W 005°41'0 0.0
2016-Aug-18 12:33N 43°35' W 005°41'0 0.0
2016-Aug-18 11:33N 43°35' W 005°41'0 0.0
2016-Aug-18 10:33N 43°35' W 005°41'0 0.0
2016-Aug-18 09:33N 43°35' W 005°41'0 0.0
2016-Aug-18 08:33N 43°35' W 005°41'0 0.0
2016-Aug-18 07:33N 43°35' W 005°41'0 0.0
2016-Aug-18 06:33N 43°35' W 005°41'0 0.0
2016-Aug-18 05:34N 43°35' W 005°41'3 2.5
2016-Aug-18 04:33N 43°35' W 005°38'1110.6
2016-Aug-18 03:33N 43°35' W 005°23'1211.4
2016-Aug-18 02:29N 43°34' W 005°06'  
2016-Aug-15 04:34N 43°28' W 002°01'1 1.0
2016-Aug-15 03:27N 43°29' W 002°02'  

Dump ship's entire track history